createdAt,value
2023-09-21T00:02:46.061Z,10.68
2023-09-21T00:06:50.852Z,12.00
2023-09-21T00:10:54.924Z,7.80
2023-09-21T00:15:00.752Z,8.60
2023-09-21T00:19:08.636Z,7.03
2023-09-21T00:23:12.333Z,9.52
2023-09-21T00:27:16.359Z,9.23
2023-09-21T00:31:21.412Z,6.97
2023-09-21T00:35:25.178Z,11.00
2023-09-21T00:39:28.294Z,9.18
2023-09-21T00:43:31.394Z,11.48
2023-09-21T00:47:35.021Z,11.20
2023-09-21T00:51:40.401Z,7.70
2023-09-21T00:59:58.431Z,11.68
2023-09-21T01:04:08.212Z,10.95
2023-09-21T01:08:14.854Z,10.45
2023-09-21T01:12:18.338Z,8.32
2023-09-21T01:16:25.425Z,9.02
2023-09-21T01:20:33.553Z,8.23
2023-09-21T01:24:36.877Z,10.88
2023-09-21T01:28:41.196Z,7.82
2023-09-21T01:32:45.090Z,12.95
2023-09-21T01:36:48.087Z,10.98
2023-09-21T01:40:51.799Z,10.75
2023-09-21T01:44:56.398Z,11.40
2023-09-21T01:48:59.302Z,10.55
2023-09-21T01:53:05.663Z,9.90
2023-09-21T01:57:09.691Z,11.25
2023-09-21T02:01:18.553Z,9.10
2023-09-21T02:05:23.238Z,11.23
2023-09-21T02:09:28.703Z,9.73
2023-09-21T02:13:31.755Z,12.60
2023-09-21T02:17:34.725Z,14.13
2023-09-21T02:21:40.134Z,10.40
2023-09-21T02:25:45.669Z,11.40
2023-09-21T02:29:48.732Z,12.68
2023-09-21T02:33:52.632Z,8.38
2023-09-21T02:37:57.214Z,9.48
2023-09-21T02:42:05.392Z,10.25
2023-09-21T02:46:08.976Z,10.05
2023-09-21T02:50:16.272Z,9.93
2023-09-21T02:54:19.313Z,11.25
2023-09-21T02:58:22.545Z,9.95
2023-09-21T03:02:31.114Z,12.02
2023-09-21T03:06:34.427Z,8.60
2023-09-21T03:10:37.955Z,8.85
2023-09-21T03:14:41.305Z,9.95
2023-09-21T03:18:49.238Z,9.30
2023-09-21T03:22:54.828Z,11.23
2023-09-21T03:26:58.311Z,10.85
2023-09-21T03:31:01.384Z,9.43
2023-09-21T03:35:06.696Z,8.13
2023-09-21T03:39:11.390Z,10.33
2023-09-21T03:43:14.647Z,12.48
2023-09-21T03:47:18.766Z,10.77
2023-09-21T03:51:41.695Z,10.90
2023-09-21T03:55:48.110Z,9.80
2023-09-21T03:59:51.138Z,14.23
2023-09-21T04:03:54.610Z,12.38
2023-09-21T04:08:00.351Z,12.35
2023-09-21T04:12:03.567Z,13.93
2023-09-21T04:16:10.780Z,16.42
2023-09-21T04:20:17.858Z,18.08
2023-09-21T04:24:25.252Z,17.42
2023-09-21T04:28:29.041Z,15.90
2023-09-21T04:32:31.911Z,16.00
2023-09-21T04:36:34.971Z,16.58
2023-09-21T04:40:40.025Z,20.98
2023-09-21T04:44:45.611Z,28.48
2023-09-21T04:48:49.577Z,31.63
2023-09-21T04:52:52.684Z,38.33
2023-09-21T04:56:56.094Z,41.78
2023-09-21T05:00:59.226Z,41.70
2023-09-21T05:05:05.248Z,47.90
2023-09-21T05:09:08.889Z,47.58
2023-09-21T05:13:12.236Z,45.42
2023-09-21T05:17:18.832Z,48.50
2023-09-21T05:25:25.215Z,47.00
2023-09-21T05:29:37.333Z,57.03
2023-09-21T05:33:41.101Z,60.20
2023-09-21T05:37:52.328Z,64.40
2023-09-21T05:42:15.464Z,62.40
2023-09-21T05:46:29.399Z,67.03
2023-09-21T05:50:46.431Z,67.60
2023-09-21T05:54:51.792Z,65.65
2023-09-21T05:59:09.366Z,69.50
2023-09-21T06:03:15.661Z,66.80
2023-09-21T06:07:28.470Z,70.57
2023-09-21T06:11:38.053Z,65.57
2023-09-21T06:15:56.022Z,69.25
2023-09-21T06:20:03.512Z,65.75
2023-09-21T06:24:26.517Z,65.82
2023-09-21T06:28:32.881Z,68.88
2023-09-21T06:32:51.242Z,64.95
2023-09-21T06:37:00.960Z,61.55
2023-09-21T06:41:07.530Z,63.20
2023-09-21T06:45:20.016Z,50.50
2023-09-21T06:49:25.589Z,57.67
2023-09-21T06:53:32.645Z,62.63
2023-09-21T06:57:41.381Z,55.65
2023-09-21T07:01:52.435Z,58.50
2023-09-21T07:06:09.345Z,56.28
2023-09-21T07:10:20.962Z,51.93
2023-09-21T07:14:30.611Z,57.45
2023-09-21T07:18:41.642Z,53.13
2023-09-21T07:22:57.203Z,53.05
2023-09-21T07:27:08.044Z,53.92
2023-09-21T07:31:17.849Z,50.35
2023-09-21T07:35:38.361Z,50.72
2023-09-21T07:39:54.352Z,45.30
2023-09-21T07:44:15.151Z,37.75
2023-09-21T07:48:22.197Z,32.80
2023-09-21T07:52:43.149Z,32.60
2023-09-21T07:56:50.309Z,30.38
2023-09-21T08:01:04.799Z,23.13
2023-09-21T08:05:11.267Z,20.20
2023-09-21T08:09:26.714Z,14.35
2023-09-21T08:14:14.484Z,15.05
2023-09-21T08:18:40.052Z,11.05
2023-09-21T08:22:51.113Z,7.85
2023-09-21T08:31:33.192Z,8.60
2023-09-21T08:36:03.164Z,7.35
2023-09-21T08:40:18.301Z,6.53
2023-09-21T08:49:15.954Z,7.40
2023-09-21T08:53:45.889Z,6.18
2023-09-21T08:58:01.921Z,4.43
2023-09-21T09:02:15.680Z,5.30
2023-09-21T09:06:44.845Z,6.13
2023-09-21T09:10:55.281Z,5.15
2023-09-21T09:15:11.649Z,6.78
2023-09-21T09:19:17.020Z,6.18
2023-09-21T09:23:28.579Z,5.65
2023-09-21T09:27:32.745Z,6.95
2023-09-21T09:31:43.854Z,4.60
2023-09-21T09:35:49.075Z,5.03
2023-09-21T09:39:58.999Z,5.20
2023-09-21T09:44:11.485Z,5.15
2023-09-21T09:48:23.005Z,7.07
2023-09-21T09:52:32.422Z,4.43
2023-09-21T10:01:35.135Z,6.70
2023-09-21T10:05:53.605Z,14.63
2023-09-21T10:10:31.553Z,6.03
2023-09-21T10:19:36.728Z,7.47
2023-09-21T10:29:02.925Z,6.82
2023-09-21T10:33:12.559Z,6.60
2023-09-21T10:37:16.819Z,6.68
2023-09-21T10:41:30.537Z,5.88
2023-09-21T10:46:25.783Z,6.32
2023-09-21T10:50:35.630Z,5.55
2023-09-21T10:54:49.915Z,6.28
2023-09-21T10:58:58.462Z,6.57
2023-09-21T11:08:57.750Z,6.32
2023-09-21T11:13:50.429Z,6.63
2023-09-21T11:30:32.125Z,4.70
2023-09-21T11:34:49.924Z,2.88
2023-09-21T11:38:56.379Z,3.72
2023-09-21T11:47:33.793Z,3.15
2023-09-21T11:51:50.390Z,3.50
2023-09-21T11:56:43.251Z,6.15
2023-09-21T12:01:19.591Z,5.07
2023-09-21T12:05:31.410Z,4.20
2023-09-21T12:09:37.836Z,7.93
2023-09-21T12:13:43.788Z,4.95
2023-09-21T12:17:49.064Z,6.15
2023-09-21T12:21:53.492Z,5.72
2023-09-21T12:26:07.636Z,5.27
2023-09-21T12:30:34.424Z,5.18
2023-09-21T12:34:43.837Z,6.15
2023-09-21T12:38:47.774Z,6.25
2023-09-21T12:43:10.991Z,5.22
2023-09-21T12:47:17.201Z,6.88
2023-09-21T12:51:20.215Z,5.80
2023-09-21T12:55:33.010Z,6.57
2023-09-21T12:59:43.883Z,8.35
2023-09-21T13:03:51.266Z,6.22
2023-09-21T13:08:01.890Z,5.93
2023-09-21T13:12:05.010Z,11.40
2023-09-21T13:16:10.335Z,6.30
2023-09-21T13:20:19.750Z,5.75
2023-09-21T13:25:14.733Z,6.68
2023-09-21T13:29:37.438Z,7.07
2023-09-21T13:33:55.387Z,5.65
2023-09-21T13:38:04.667Z,11.02
2023-09-21T13:42:31.628Z,9.10
2023-09-21T13:53:07.736Z,6.15
2023-09-21T13:57:14.706Z,8.50
2023-09-21T14:01:25.666Z,9.27
2023-09-21T14:05:30.720Z,4.68
2023-09-21T14:09:37.537Z,5.95
2023-09-21T14:13:41.997Z,7.65
2023-09-21T14:17:52.465Z,7.88
2023-09-21T14:21:56.843Z,9.40
2023-09-21T14:26:11.316Z,7.97
2023-09-21T14:30:51.285Z,5.80
2023-09-21T14:35:21.924Z,7.68
2023-09-21T14:39:26.690Z,6.35
2023-09-21T14:43:29.811Z,6.55
2023-09-21T14:47:35.339Z,9.88
2023-09-21T14:51:39.178Z,6.90
2023-09-21T14:55:42.398Z,6.72
2023-09-21T14:59:49.886Z,7.47
2023-09-21T15:04:31.333Z,5.72
2023-09-21T15:08:41.398Z,6.65
2023-09-21T15:12:45.796Z,9.30
2023-09-21T15:16:48.720Z,5.97
2023-09-21T15:20:51.530Z,7.38
2023-09-21T15:24:54.413Z,7.22
2023-09-21T15:28:57.247Z,9.88
2023-09-21T15:33:00.395Z,7.65
2023-09-21T15:37:03.532Z,6.50
2023-09-21T15:41:07.959Z,4.85
2023-09-21T15:45:11.866Z,6.60
2023-09-21T15:49:14.939Z,10.05
2023-09-21T15:53:17.817Z,8.23
2023-09-21T15:57:30.218Z,8.50
2023-09-21T16:01:41.909Z,8.38
2023-09-21T16:05:50.246Z,7.07
2023-09-21T16:09:54.140Z,7.47
2023-09-21T16:13:57.122Z,9.70
2023-09-21T16:18:00.750Z,10.63
2023-09-21T16:22:06.963Z,11.07
2023-09-21T16:26:11.624Z,7.78
2023-09-21T16:30:16.993Z,7.97
2023-09-21T16:34:20.453Z,7.95
2023-09-21T16:38:23.808Z,9.80
2023-09-21T16:42:28.024Z,12.15
2023-09-21T16:50:37.992Z,13.32
2023-09-21T16:54:52.416Z,10.80
2023-09-21T16:58:55.417Z,6.15
2023-09-21T17:03:00.181Z,11.05
2023-09-21T17:07:34.711Z,7.97
2023-09-21T17:11:56.725Z,10.88
2023-09-21T17:16:11.667Z,9.00
2023-09-21T17:24:53.096Z,8.30
2023-09-21T17:29:05.002Z,9.65
2023-09-21T17:33:08.437Z,8.05
2023-09-21T17:49:04.615Z,8.07
2023-09-21T18:18:04.489Z,7.70
2023-09-21T18:22:08.710Z,10.15
2023-09-21T18:26:25.051Z,10.13
2023-09-21T18:30:36.998Z,10.48
2023-09-21T18:34:40.429Z,8.30
2023-09-21T18:38:46.184Z,7.68
2023-09-21T18:42:50.950Z,7.82
2023-09-21T18:46:55.629Z,11.40
2023-09-21T18:51:00.403Z,8.05
2023-09-21T18:55:08.928Z,6.38
2023-09-21T18:59:12.668Z,8.60
2023-09-21T19:03:15.739Z,11.60
2023-09-21T19:07:20.228Z,8.10
2023-09-21T19:11:27.964Z,10.20
2023-09-21T19:15:32.073Z,8.10
2023-09-21T19:19:37.261Z,10.63
2023-09-21T19:23:40.278Z,8.68
2023-09-21T19:27:43.944Z,10.98
2023-09-21T19:31:49.190Z,11.90
2023-09-21T19:35:57.795Z,9.07
2023-09-21T19:40:02.248Z,9.02
2023-09-21T19:44:05.251Z,7.35
2023-09-21T19:48:17.507Z,10.88
2023-09-21T19:52:25.595Z,8.93
2023-09-21T19:56:29.479Z,9.55
2023-09-21T20:00:32.451Z,13.63
2023-09-21T20:04:47.816Z,9.35
2023-09-21T20:09:01.126Z,10.68
2023-09-21T20:13:08.110Z,8.98
2023-09-21T20:17:12.241Z,9.88
2023-09-21T20:21:16.194Z,9.57
2023-09-21T20:25:27.137Z,15.13
2023-09-21T20:29:39.791Z,8.77
2023-09-21T20:33:46.404Z,8.57
2023-09-21T20:38:02.475Z,7.25
2023-09-21T20:42:11.205Z,12.63
2023-09-21T20:46:18.794Z,10.90
2023-09-21T20:50:22.120Z,11.82
2023-09-21T20:54:25.594Z,8.57
2023-09-21T20:58:30.638Z,7.40
2023-09-21T21:02:33.908Z,11.15
2023-09-21T21:06:37.270Z,11.13
2023-09-21T21:10:41.234Z,6.50
2023-09-21T21:14:48.380Z,11.80
2023-09-21T21:18:54.125Z,10.75
2023-09-21T21:23:01.906Z,10.27
2023-09-21T21:27:33.658Z,10.85
2023-09-21T21:31:43.475Z,9.25
2023-09-21T21:35:54.708Z,12.40
2023-09-21T21:40:06.479Z,10.80
2023-09-21T21:44:14.310Z,10.60
2023-09-21T21:48:30.970Z,12.18
2023-09-21T21:52:35.037Z,10.35
2023-09-21T21:56:49.743Z,14.63
2023-09-21T22:00:57.069Z,10.05
2023-09-21T22:05:00.119Z,10.32
2023-09-21T22:09:13.129Z,10.98
2023-09-21T22:13:20.582Z,8.27
2023-09-21T22:17:28.014Z,11.55
2023-09-21T22:21:35.291Z,10.20
2023-09-21T22:25:38.472Z,10.57
2023-09-21T22:29:41.967Z,12.18
2023-09-21T22:33:48.900Z,12.68
2023-09-21T22:38:12.063Z,10.50
2023-09-21T22:42:21.845Z,10.40
2023-09-21T22:46:36.936Z,12.30
2023-09-21T22:50:46.697Z,11.20
2023-09-21T22:54:55.236Z,11.02
2023-09-21T22:59:01.747Z,12.48
2023-09-21T23:03:11.236Z,16.95
2023-09-21T23:07:23.121Z,7.82
2023-09-21T23:11:39.131Z,15.27
2023-09-21T23:15:51.609Z,12.07
2023-09-21T23:19:59.757Z,10.82
2023-09-21T23:24:04.484Z,13.13
2023-09-21T23:28:15.628Z,14.00
2023-09-21T23:32:30.705Z,15.85
2023-09-21T23:36:33.667Z,11.98
2023-09-21T23:40:41.192Z,11.75
2023-09-21T23:44:48.076Z,12.70
2023-09-21T23:48:52.934Z,12.70
2023-09-21T23:52:58.161Z,12.10
2023-09-21T23:57:06.730Z,15.73
